Time;durP1;ratioP1;P1;durP2;ratioP2;P2;SDS_P1;SDS_P2;PMS_P1;PMS_P2;Temp;Humidity;BMP_temperature;BMP_pressure;BME280_temperature;BME280_humidity;BME280_pressure;Samples;Min_cycle;Max_cycle;Signal;HPM_P1;HPM_P2
2023/11/13 00:02:10;;;;;;;0.52;0.52;;;;;;;6.17;100.00;100559.78;5020970;28;20052;-77
2023/11/13 00:04:36;;;;;;;0.30;0.30;;;;;;;5.97;100.00;100527.25;5053024;28;20044;-77
2023/11/13 00:07:03;;;;;;;0.47;0.47;;;;;;;6.01;100.00;100555.97;5034634;28;20106;-75
2023/11/13 00:09:29;;;;;;;1.58;1.48;;;;;;;5.31;100.00;100434.72;5007546;28;20037;-75
2023/11/13 00:11:54;;;;;;;0.40;0.40;;;;;;;5.91;100.00;100530.56;5027571;28;20028;-74
2023/11/13 00:14:20;;;;;;;0.30;0.30;;;;;;;6.13;100.00;100579.72;5031889;28;20187;-75
2023/11/13 00:16:46;;;;;;;0.30;0.30;;;;;;;5.70;100.00;100531.88;5045557;28;20071;-76
2023/11/13 00:19:12;;;;;;;0.77;0.75;;;;;;;5.84;100.00;100565.16;5027291;28;20503;-75
2023/11/13 00:21:37;;;;;;;0.30;0.30;;;;;;;5.61;100.00;100513.44;5042856;28;20045;-75
2023/11/13 00:24:05;;;;;;;0.40;0.40;;;;;;;6.10;100.00;100582.22;5031182;28;20381;-75
2023/11/13 00:26:30;;;;;;;1.38;0.93;;;;;;;5.44;100.00;100460.16;5052364;28;20120;-75
2023/11/13 00:28:56;;;;;;;0.38;0.38;;;;;;;5.54;100.00;100471.66;5035001;28;20485;-75
2023/11/13 00:31:22;;;;;;;0.20;0.20;;;;;;;5.10;100.00;100448.13;5039474;28;20047;-75
2023/11/13 00:34:17;;;;;;;0.63;0.63;;;;;;;6.07;100.00;100581.31;5029334;28;20453;-75
2023/11/13 00:36:43;;;;;;;1.00;1.00;;;;;;;5.94;100.00;100585.34;5029203;28;20124;-76
2023/11/13 00:39:10;;;;;;;0.40;0.40;;;;;;;5.31;100.00;100482.41;5030139;28;20022;-76
2023/11/13 00:41:40;;;;;;;1.92;1.70;;;;;;;5.79;100.00;100566.78;5029752;28;20057;-75
2023/11/13 00:44:07;;;;;;;0.30;0.30;;;;;;;5.90;100.00;100591.34;5032656;28;20043;-76
2023/11/13 00:47:24;;;;;;;1.50;1.40;;;;;;;5.90;100.00;100591.34;5031857;28;20041;-75
2023/11/13 00:49:49;;;;;;;0.40;0.40;;;;;;;5.75;100.00;100593.59;5031619;28;20124;-75
2023/11/13 00:52:14;;;;;;;0.30;0.30;;;;;;;5.84;100.00;100588.59;5031517;28;20053;-75
2023/11/13 00:54:40;;;;;;;0.40;0.40;;;;;;;5.14;100.00;100499.38;5023068;28;20113;-75
2023/11/13 00:57:30;;;;;;;1.63;1.58;;;;;;;5.79;100.00;100603.22;5008884;28;20547;-75
2023/11/13 00:59:55;;;;;;;0.30;0.30;;;;;;;5.52;100.00;100573.09;5044921;28;20028;-75
2023/11/13 01:03:04;;;;;;;0.20;0.20;;;;;;;5.60;100.00;100607.13;5030042;28;20045;-74
2023/11/13 01:05:30;;;;;;;0.30;0.30;;;;;;;5.64;100.00;100615.06;5036672;28;20045;-77
2023/11/13 01:08:05;;;;;;;0.38;0.38;;;;;;;5.48;100.00;100579.97;5039964;28;20037;-76
2023/11/13 01:10:31;;;;;;;1.40;1.30;;;;;;;4.92;100.00;100470.28;5029437;28;20420;-75
2023/11/13 01:13:38;;;;;;;1.20;1.20;;;;;;;5.63;100.00;100607.19;5027484;28;20144;-75
2023/11/13 01:16:04;;;;;;;0.52;0.52;;;;;;;4.93;100.00;100492.81;5029978;28;20037;-76
2023/11/13 01:18:31;;;;;;;0.38;0.38;;;;;;;4.75;100.00;100488.06;5026732;28;20041;-75
2023/11/13 01:20:57;;;;;;;3.97;3.80;;;;;;;5.27;100.00;100592.47;5035886;28;20025;-75
2023/11/13 01:23:23;;;;;;;0.55;0.55;;;;;;;5.35;100.00;100605.66;5046994;28;20123;-74
2023/11/13 01:25:48;;;;;;;0.30;0.30;;;;;;;4.79;100.00;100526.28;5033087;28;20516;-74
2023/11/13 01:28:15;;;;;;;0.88;0.88;;;;;;;4.64;100.00;100499.91;5033696;28;20041;-74
2023/11/13 01:30:41;;;;;;;0.30;0.30;;;;;;;5.21;100.00;100623.53;5031855;28;20036;-75
2023/11/13 01:33:07;;;;;;;0.52;0.50;;;;;;;5.12;100.00;100611.16;5027938;28;20380;-75
2023/11/13 01:35:35;;;;;;;0.50;0.50;;;;;;;4.37;100.00;100492.28;5025044;28;20021;-75
2023/11/13 01:38:02;;;;;;;0.30;0.30;;;;;;;4.95;100.00;100573.47;5035021;28;20370;-75
2023/11/13 01:40:28;;;;;;;1.17;1.08;;;;;;;5.07;100.00;100607.59;5045766;28;20109;-74
2023/11/13 01:42:53;;;;;;;0.30;0.30;;;;;;;4.57;100.00;100527.47;5038891;28;20397;-74
2023/11/13 01:45:19;;;;;;;0.30;0.30;;;;;;;4.49;100.00;100508.19;5038030;28;20028;-75
2023/11/13 01:51:45;;;;;;;3.65;3.53;;;;;;;4.92;100.00;100638.41;5041549;28;20052;-74
2023/11/13 01:54:13;;;;;;;1.10;1.00;;;;;;;4.14;100.00;100533.19;5046019;28;20457;-74
2023/11/13 01:56:39;;;;;;;0.43;0.43;;;;;;;4.70;100.00;100616.13;5045833;28;20049;-74
2023/11/13 01:59:05;;;;;;;0.30;0.30;;;;;;;4.71;100.00;100636.97;5047958;28;20064;-76
2023/11/13 02:02:18;;;;;;;0.30;0.30;;;;;;;4.75;100.00;100648.31;5034093;28;20033;-76
2023/11/13 02:04:43;;;;;;;4.78;4.30;;;;;;;4.27;100.00;100587.25;5033479;28;20135;-75
2023/11/13 02:07:09;;;;;;;0.60;0.60;;;;;;;4.22;100.00;100557.69;5035508;28;20509;-75
2023/11/13 02:09:35;;;;;;;0.50;0.50;;;;;;;4.65;100.00;100657.59;5030324;28;20048;-75
2023/11/13 02:12:15;;;;;;;0.40;0.40;;;;;;;4.70;100.00;100655.13;5031623;28;20657;-74
2023/11/13 02:14:41;;;;;;;0.45;0.45;;;;;;;4.61;100.00;100646.25;5033591;28;20365;-74
2023/11/13 02:17:08;;;;;;;0.40;0.40;;;;;;;3.63;100.00;100486.75;5032991;28;20049;-74
2023/11/13 02:19:34;;;;;;;0.32;0.32;;;;;;;4.74;100.00;100664.78;5038879;28;20037;-74
2023/11/13 02:22:00;;;;;;;3.30;3.15;;;;;;;3.87;100.00;100557.56;5021557;28;20060;-76
2023/11/13 02:24:26;;;;;;;0.50;0.50;;;;;;;4.61;100.00;100658.34;5035180;28;20157;-74
2023/11/13 02:27:01;;;;;;;0.30;0.30;;;;;;;4.68;100.00;100662.00;5029240;28;20539;-75
2023/11/13 02:29:33;;;;;;;0.50;0.50;;;;;;;4.01;100.00;100529.41;5029150;28;20155;-76
2023/11/13 02:31:59;;;;;;;0.60;0.60;;;;;;;4.25;100.00;100562.94;5029498;28;20041;-75
2023/11/13 02:34:39;;;;;;;0.30;0.30;;;;;;;4.69;100.00;100649.06;5038122;28;20170;-75
2023/11/13 02:37:05;;;;;;;0.85;0.85;;;;;;;4.71;100.00;100655.19;5030556;28;20103;-77
2023/11/13 02:39:31;;;;;;;0.60;0.60;;;;;;;4.08;100.00;100557.28;5032486;28;20030;-76
2023/11/13 02:41:58;;;;;;;0.80;0.60;;;;;;;4.17;100.00;100573.13;5036013;28;20033;-75
2023/11/13 02:44:36;;;;;;;0.30;0.30;;;;;;;4.01;100.00;100548.44;5032296;28;20040;-75
2023/11/13 02:47:02;;;;;;;8.57;7.45;;;;;;;4.04;100.00;100576.22;5042301;28;20033;-76
2023/11/13 02:49:28;;;;;;;0.30;0.30;;;;;;;4.55;100.00;100664.25;5049856;28;20456;-76
2023/11/13 02:51:53;;;;;;;0.30;0.30;;;;;;;3.90;100.00;100560.22;5032183;28;20041;-74
2023/11/13 02:54:20;;;;;;;0.30;0.30;;;;;;;4.38;100.00;100653.38;5038708;28;20044;-74
2023/11/13 02:56:45;;;;;;;0.40;0.40;;;;;;;4.54;100.00;100679.78;5032780;28;20404;-75
2023/11/13 02:59:16;;;;;;;0.40;0.40;;;;;;;3.91;100.00;100564.59;5047951;28;20093;-75
2023/11/13 03:01:42;;;;;;;0.50;0.50;;;;;;;4.51;100.00;100679.72;5039239;28;20044;-74
2023/11/13 03:04:09;;;;;;;0.43;0.43;;;;;;;3.86;100.00;100586.03;5048967;28;20041;-75
2023/11/13 03:06:35;;;;;;;0.95;0.93;;;;;;;3.35;100.00;100564.63;5050666;28;20037;-74
2023/11/13 03:09:00;;;;;;;0.30;0.30;;;;;;;3.87;100.00;100611.19;5048591;28;20454;-73
2023/11/13 03:11:26;;;;;;;0.40;0.40;;;;;;;4.29;100.00;100684.28;5043523;28;20025;-75
2023/11/13 03:13:51;;;;;;;0.50;0.50;;;;;;;3.81;100.00;100593.69;5029103;28;20053;-74
2023/11/13 03:16:57;;;;;;;0.52;0.52;;;;;;;4.32;100.00;100689.56;5032214;28;20465;-76
2023/11/13 03:19:29;;;;;;;1.20;1.17;;;;;;;3.88;100.00;100612.94;5039923;28;20045;-75
2023/11/13 03:21:54;;;;;;;1.67;1.63;;;;;;;3.51;100.00;100567.69;5031545;28;20033;-74
2023/11/13 03:24:20;;;;;;;0.30;0.30;;;;;;;3.49;100.00;100569.34;5026999;28;20072;-75
2023/11/13 03:26:45;;;;;;;9.70;8.80;;;;;;;3.72;100.00;100602.09;5025131;28;20042;-75
2023/11/13 03:29:11;;;;;;;0.90;0.90;;;;;;;4.29;100.00;100688.59;5014308;28;20056;-75
2023/11/13 03:31:36;;;;;;;0.88;0.88;;;;;;;4.36;100.00;100696.63;5037243;28;20050;-75
2023/11/13 03:34:10;;;;;;;0.40;0.40;;;;;;;3.82;100.00;100608.44;5038799;28;20037;-75
2023/11/13 03:36:40;;;;;;;0.77;0.77;;;;;;;3.52;100.00;100593.69;5039291;28;20064;-75
2023/11/13 03:39:06;;;;;;;0.88;0.82;;;;;;;4.07;100.00;100677.53;5036391;28;20052;-76
2023/11/13 03:41:32;;;;;;;0.85;0.85;;;;;;;4.33;100.00;100706.94;5028923;28;20057;-75
2023/11/13 03:44:00;;;;;;;2.15;2.05;;;;;;;3.73;100.00;100631.53;5025918;28;20041;-73
2023/11/13 03:46:26;;;;;;;1.65;1.58;;;;;;;3.95;100.00;100688.44;5029392;28;20045;-74
2023/11/13 03:48:52;;;;;;;5.32;4.95;;;;;;;3.99;100.00;100705.00;5030229;28;20037;-76
2023/11/13 03:51:18;;;;;;;0.30;0.30;;;;;;;3.40;100.00;100611.47;5032097;28;20117;-75
2023/11/13 04:03:49;;;;;;;0.40;0.40;;;;;;;3.24;100.00;100604.03;5027880;28;20083;-74
2023/11/13 04:06:16;;;;;;;11.18;10.20;;;;;;;4.01;100.00;100719.78;5030313;28;20036;-74
2023/11/13 04:08:41;;;;;;;0.52;0.52;;;;;;;4.07;100.00;100718.22;5031428;28;20059;-76
2023/11/13 04:11:07;;;;;;;0.40;0.40;;;;;;;3.85;100.00;100686.41;5023864;28;20049;-76
2023/11/13 04:13:34;;;;;;;1.27;1.17;;;;;;;4.02;100.00;100718.94;5028441;28;20308;-75
2023/11/13 04:16:01;;;;;;;0.50;0.50;;;;;;;4.04;100.00;100719.00;5030938;28;20045;-75
2023/11/13 04:19:06;;;;;;;0.32;0.32;;;;;;;4.02;100.00;100720.66;5031909;28;20037;-76
2023/11/13 04:21:39;;;;;;;0.40;0.40;;;;;;;3.19;100.00;100590.91;5027204;28;20099;-75
2023/11/13 04:24:05;;;;;;;0.50;0.50;;;;;;;3.70;100.00;100684.22;5016921;28;21294;-74
2023/11/13 04:26:31;;;;;;;0.77;0.77;;;;;;;3.29;100.00;100599.84;5050468;28;20045;-74
2023/11/13 04:28:56;;;;;;;1.02;1.02;;;;;;;3.73;100.00;100691.22;5048811;28;20445;-75
2023/11/13 04:31:22;;;;;;;0.75;0.75;;;;;;;3.80;100.00;100693.16;5038747;28;20037;-75
2023/11/13 04:33:50;;;;;;;2.05;1.85;;;;;;;3.73;100.00;100699.00;5027900;28;20029;-75
2023/11/13 04:36:16;;;;;;;0.32;0.32;;;;;;;3.86;100.00;100714.09;5026868;28;20768;-75
2023/11/13 04:42:20;;;;;;;0.68;0.68;;;;;;;3.72;100.00;100692.94;5031000;28;20052;-75
2023/11/13 04:54:59;;;;;;;0.50;0.50;;;;;;;3.78;100.00;100716.47;5030581;28;20036;-75
2023/11/13 04:57:24;;;;;;;2.03;1.90;;;;;;;3.07;100.00;100598.28;5015198;28;20136;-75
2023/11/13 04:59:50;;;;;;;3.80;3.60;;;;;;;3.58;100.00;100696.75;5044557;28;20104;-75
2023/11/13 05:02:16;;;;;;;0.50;0.50;;;;;;;3.57;100.00;100711.44;5030272;28;20555;-75
2023/11/13 05:04:46;;;;;;;0.40;0.40;;;;;;;3.89;100.00;100732.41;5035129;28;20071;-75
2023/11/13 05:07:11;;;;;;;0.60;0.60;;;;;;;3.90;100.00;100726.34;5043231;28;20037;-75
2023/11/13 05:09:37;;;;;;;9.43;8.98;;;;;;;3.87;100.00;100725.41;5028584;28;20045;-75
2023/11/13 05:12:03;;;;;;;0.60;0.43;;;;;;;3.26;100.00;100685.34;5034109;28;20372;-75
2023/11/13 05:14:29;;;;;;;2.25;2.15;;;;;;;3.71;100.00;100727.47;5022416;28;20025;-76
2023/11/13 05:16:57;;;;;;;0.30;0.30;;;;;;;3.26;100.00;100634.34;5028051;28;20091;-75
2023/11/13 05:19:23;;;;;;;0.30;0.30;;;;;;;3.85;100.00;100725.34;5015036;28;20374;-75
2023/11/13 05:21:49;;;;;;;0.63;0.63;;;;;;;3.69;100.00;100705.78;5032793;28;20033;-76
2023/11/13 05:24:15;;;;;;;5.03;4.80;;;;;;;3.74;100.00;100691.22;5029048;28;20394;-78
2023/11/13 05:27:19;;;;;;;4.03;3.83;;;;;;;3.80;100.00;100748.53;5035721;28;20122;-76
2023/11/13 05:29:45;;;;;;;10.07;9.63;;;;;;;3.30;100.00;100715.72;5044827;28;20100;-76
2023/11/13 05:32:10;;;;;;;0.50;0.40;;;;;;;3.12;100.00;100633.88;5031482;28;20033;-77
2023/11/13 05:34:36;;;;;;;0.95;0.95;;;;;;;3.58;100.00;100725.31;5031297;28;20065;-76
2023/11/13 05:40:25;;;;;;;1.05;1.05;;;;;;;3.52;100.00;100743.28;5035158;28;20056;-76
2023/11/13 05:42:51;;;;;;;0.30;0.30;;;;;;;3.28;100.00;100735.56;5032897;28;20209;-75
2023/11/13 05:45:16;;;;;;;1.33;1.27;;;;;;;3.17;100.00;100733.44;5035158;28;20378;-77
2023/11/13 05:47:43;;;;;;;1.13;1.13;;;;;;;3.59;100.00;100755.63;5051947;28;20056;-75
2023/11/13 05:53:31;;;;;;;1.08;1.08;;;;;;;3.60;100.00;100661.38;5035830;28;20036;-77
2023/11/13 05:59:18;;;;;;;0.30;0.30;;;;;;;3.73;100.00;100754.38;5035094;28;20524;-75
2023/11/13 06:05:04;;;;;;;0.40;0.40;;;;;;;3.97;100.00;100782.84;5034956;28;20040;-76
2023/11/13 06:10:51;;;;;;;0.30;0.30;;;;;;;3.47;100.00;100651.47;5036038;28;20080;-76
2023/11/13 06:13:17;;;;;;;0.70;0.70;;;;;;;4.11;100.00;100709.69;5016797;28;20168;-77
2023/11/13 06:15:42;;;;;;;0.40;0.40;;;;;;;4.34;100.00;100758.03;5016870;28;20030;-78
2023/11/13 06:18:08;;;;;;;1.42;1.33;;;;;;;4.11;100.00;100762.50;5032272;28;20079;-77
2023/11/13 06:23:55;;;;;;;10.65;9.85;;;;;;;4.26;100.00;100769.00;5035010;28;20079;-78
2023/11/13 06:26:21;;;;;;;3.25;3.05;;;;;;;3.79;100.00;100666.34;5033610;28;20046;-79
2023/11/13 06:28:46;;;;;;;3.67;3.50;;;;;;;4.49;100.00;100778.41;5033094;28;20033;-79
2023/11/13 06:31:12;;;;;;;0.40;0.40;;;;;;;4.21;100.00;100751.59;5034187;28;20515;-78
2023/11/13 06:36:59;;;;;;;7.68;7.22;;;;;;;3.96;100.00;100762.91;5034364;28;20492;-78
2023/11/13 06:39:25;;;;;;;4.32;4.13;;;;;;;3.21;100.00;100614.25;5015660;28;20042;-79
2023/11/13 06:41:52;;;;;;;0.40;0.40;;;;;;;3.84;100.00;100688.94;5033792;28;20045;-79
2023/11/13 06:44:19;;;;;;;0.40;0.40;;;;;;;4.60;100.00;100773.53;5037339;28;20068;-76
2023/11/13 06:46:45;;;;;;;0.40;0.40;;;;;;;4.03;100.00;100686.09;5036780;28;20068;-76
2023/11/13 06:49:11;;;;;;;13.63;12.35;;;;;;;3.91;100.00;100650.25;5038151;28;20081;-76
2023/11/13 06:51:37;;;;;;;0.30;0.30;;;;;;;3.95;100.00;100659.00;5042818;28;20087;-80
2023/11/13 06:54:03;;;;;;;0.30;0.30;;;;;;;4.17;100.00;100692.59;5028714;28;20026;-84
2023/11/13 06:56:32;;;;;;;0.40;0.40;;;;;;;4.85;100.00;100762.16;5025953;28;20078;-78
2023/11/13 06:58:58;;;;;;;1.45;1.35;;;;;;;5.05;100.00;100760.97;5036229;28;20050;-77
2023/11/13 07:01:58;;;;;;;0.30;0.30;;;;;;;5.56;100.00;100777.09;5043312;28;20136;-80
2023/11/13 07:04:57;;;;;;;1.25;1.15;;;;;;;5.33;100.00;100779.06;5037242;28;20064;-77
2023/11/13 07:07:24;;;;;;;0.40;0.40;;;;;;;5.31;100.00;100779.03;5050135;28;20468;-77
2023/11/13 07:13:19;;;;;;;0.28;0.28;;;;;;;5.68;100.00;100787.81;5031377;28;20156;-77
2023/11/13 07:16:04;;;;;;;1.13;1.13;;;;;;;5.89;100.00;100785.75;5016301;28;20040;-80
2023/11/13 07:18:32;;;;;;;1.20;1.17;;;;;;;5.85;100.00;100778.72;5024704;28;20033;-79
2023/11/13 07:21:03;;;;;;;0.40;0.40;;;;;;;6.00;100.00;100783.44;5010388;28;20034;-81
2023/11/13 07:23:29;;;;;;;0.60;0.60;;;;;;;6.34;100.00;100769.50;5030292;28;20052;-78
2023/11/13 07:25:57;;;;;;;0.38;0.38;;;;;;;6.27;100.00;100767.56;5025435;28;20481;-80
2023/11/13 07:28:23;;;;;;;0.20;0.20;;;;;;;6.05;100.00;100762.72;5028294;28;20033;-81
2023/11/13 07:30:54;;;;;;;0.30;0.30;;;;;;;5.95;100.00;100761.63;5007266;28;20519;-81
2023/11/13 07:33:22;;;;;;;8.10;7.72;;;;;;;6.08;100.00;100719.38;5008650;28;20025;-82
2023/11/13 07:35:55;;;;;;;0.38;0.38;;;;;;;6.08;100.00;100774.09;4991541;28;20022;-81
2023/11/13 07:38:21;;;;;;;0.47;0.47;;;;;;;5.67;100.00;100684.53;4991462;28;20037;-82
2023/11/13 07:40:52;;;;;;;0.30;0.30;;;;;;;6.10;100.00;100714.22;5028467;28;20116;-82
2023/11/13 07:43:23;;;;;;;;;;;;;;;6.47;100.00;100767.16;5022548;28;20033;-80
2023/11/13 07:46:10;;;;;;;0.85;0.85;;;;;;;6.34;100.00;100756.47;4998890;28;19936;-82
2023/11/13 07:49:10;;;;;;;0.38;0.38;;;;;;;6.33;100.00;100753.81;4998038;28;20033;-81
2023/11/13 07:51:54;;;;;;;0.40;0.40;;;;;;;6.54;100.00;100743.88;5023638;28;20041;-81
2023/11/13 07:54:22;;;;;;;0.30;0.30;;;;;;;6.64;100.00;100744.94;5022699;28;20032;-81
2023/11/13 07:57:00;;;;;;;0.30;0.30;;;;;;;6.87;100.00;100745.44;5033165;28;20522;-82
2023/11/13 07:59:41;;;;;;;0.30;0.30;;;;;;;7.07;100.00;100742.31;5017711;28;20061;-81
2023/11/13 08:02:19;;;;;;;0.30;0.30;;;;;;;7.32;100.00;100746.28;4988265;28;20033;-79
2023/11/13 08:08:12;;;;;;;0.40;0.40;;;;;;;7.06;100.00;100715.34;5022923;28;20036;-82
2023/11/13 08:13:59;;;;;;;0.28;0.28;;;;;;;7.23;100.00;100686.97;5032339;28;20381;-79
2023/11/13 08:16:32;;;;;;;0.40;0.40;;;;;;;7.00;100.00;100660.47;5019666;28;20037;-80
2023/11/13 08:18:57;;;;;;;3.58;3.20;;;;;;;7.95;100.00;100770.91;5009994;28;20041;-79
2023/11/13 08:21:30;;;;;;;0.90;0.88;;;;;;;8.15;100.00;100779.94;5019933;28;20037;-83
2023/11/13 08:23:57;;;;;;;0.25;0.25;;;;;;;7.83;100.00;100656.63;5024087;28;20218;-76
2023/11/13 08:26:27;;;;;;;0.30;0.30;;;;;;;7.88;100.00;100644.50;5029463;28;20567;-77
2023/11/13 08:28:54;;;;;;;0.30;0.30;;;;;;;8.53;100.00;100735.19;5023158;28;20428;-77
2023/11/13 08:31:21;;;;;;;0.20;0.20;;;;;;;8.69;100.00;100740.66;5027052;28;20037;-78
2023/11/13 08:33:47;;;;;;;2.92;1.15;;;;;;;8.77;100.00;100747.72;5026960;28;20060;-76
2023/11/13 08:36:15;;;;;;;0.40;0.30;;;;;;;8.51;100.00;100648.00;5026488;28;20034;-78
2023/11/13 08:42:30;;;;;;;0.30;0.30;;;;;;;9.40;100.00;100743.19;5028070;28;20072;-76
2023/11/13 08:54:51;;;;;;;0.20;0.20;;;;;;;9.28;100.00;100633.97;5033937;28;20037;-77
2023/11/13 08:57:16;;;;;;;3.92;3.67;;;;;;;9.41;100.00;100642.84;5014721;28;20369;-77
2023/11/13 08:59:42;;;;;;;0.55;0.55;;;;;;;9.25;98.87;100682.84;5032723;28;20069;-76
2023/11/13 09:02:11;;;;;;;1.65;1.55;;;;;;;8.79;98.16;100624.78;5033801;28;20105;-76
2023/11/13 09:05:04;;;;;;;1.42;1.38;;;;;;;9.87;98.33;100716.53;5022994;28;20037;-76
2023/11/13 09:07:31;;;;;;;1.00;0.95;;;;;;;9.71;100.00;100701.56;5031542;28;20029;-76
2023/11/13 09:10:08;;;;;;;2.65;2.45;;;;;;;9.87;100.00;100718.28;5045481;28;20039;-76
2023/11/13 09:12:50;;;;;;;2.85;2.47;;;;;;;9.06;96.55;100658.19;5027902;28;20045;-77
2023/11/13 09:15:17;;;;;;;0.30;0.30;;;;;;;9.55;98.02;100712.78;5029340;28;20359;-78
2023/11/13 09:18:23;;;;;;;0.30;0.30;;;;;;;9.66;98.10;100717.25;5038760;28;20033;-76
2023/11/13 09:20:48;;;;;;;0.40;0.40;;;;;;;8.95;98.13;100604.88;5031631;28;20537;-77
2023/11/13 09:23:22;;;;;;;0.20;0.20;;;;;;;9.45;98.93;100698.72;5031429;28;20124;-76
2023/11/13 09:25:48;;;;;;;2.40;1.45;;;;;;;9.35;98.13;100626.19;5030019;28;20500;-76
2023/11/13 09:28:13;;;;;;;1.00;0.90;;;;;;;10.06;97.20;100700.94;5028554;28;20041;-77
2023/11/13 09:30:39;;;;;;;0.82;0.82;;;;;;;9.67;94.47;100679.72;5030686;28;20029;-76
2023/11/13 09:33:08;;;;;;;1.40;1.30;;;;;;;9.80;95.65;100699.00;5029549;28;20025;-77
2023/11/13 09:35:36;;;;;;;0.30;0.30;;;;;;;9.90;95.97;100677.28;5029313;28;20030;-77
2023/11/13 09:38:03;;;;;;;0.20;0.20;;;;;;;9.38;93.55;100606.13;5030604;28;20032;-78
2023/11/13 09:40:35;;;;;;;0.20;0.20;;;;;;;9.54;84.57;100593.16;5030710;28;20349;-76
2023/11/13 09:43:15;;;;;;;1.95;1.33;;;;;;;9.72;88.83;100574.94;5029309;28;20033;-76
2023/11/13 09:45:46;;;;;;;2.25;1.58;;;;;;;9.81;87.36;100609.06;5031588;28;20038;-77
2023/11/13 09:48:18;;;;;;;1.73;1.27;;;;;;;10.47;82.50;100659.25;5033274;28;20033;-77
2023/11/13 09:50:44;;;;;;;0.20;0.20;;;;;;;10.17;83.50;100696.66;5036181;28;20025;-76
2023/11/13 09:53:15;;;;;;;1.63;1.10;;;;;;;9.60;87.79;100580.06;5032210;28;20045;-76
2023/11/13 09:55:41;;;;;;;1.58;1.48;;;;;;;9.60;82.31;100587.94;5028457;28;20428;-78
2023/11/13 09:58:13;;;;;;;1.20;0.75;;;;;;;10.18;85.21;100685.28;5029042;28;20389;-79
2023/11/13 10:00:40;;;;;;;0.28;0.28;;;;;;;10.29;80.09;100688.88;5029239;28;20044;-77
2023/11/13 10:03:10;;;;;;;1.67;0.95;;;;;;;10.42;74.57;100687.22;5027348;28;20923;-76
2023/11/13 10:08:57;;;;;;;0.22;0.22;;;;;;;9.80;70.97;100588.94;5032704;28;20126;-76
2023/11/13 10:11:28;;;;;;;0.20;0.20;;;;;;;9.81;74.36;100585.47;5033034;28;20448;-77
2023/11/13 10:14:11;;;;;;;0.80;0.68;;;;;;;10.31;70.26;100676.66;5032275;28;20052;-77
2023/11/13 10:16:37;;;;;;;0.93;0.75;;;;;;;10.26;70.96;100662.63;5030345;28;20037;-77
2023/11/13 10:19:15;;;;;;;0.47;0.47;;;;;;;10.17;67.88;100585.66;5015918;28;20505;-75
2023/11/13 10:21:42;;;;;;;0.63;0.55;;;;;;;10.04;67.68;100577.72;5012861;28;20488;-76
2023/11/13 10:24:15;;;;;;;1.33;1.23;;;;;;;11.16;74.89;100680.47;5033001;28;20461;-77
2023/11/13 10:26:42;;;;;;;1.15;0.93;;;;;;;11.28;75.31;100653.31;5033169;28;20052;-76
2023/11/13 10:29:31;;;;;;;0.30;0.30;;;;;;;11.40;77.55;100673.47;5027559;28;20154;-76
2023/11/13 10:32:36;;;;;;;0.43;0.43;;;;;;;11.72;68.91;100675.25;5029954;28;20045;-76
2023/11/13 10:35:27;;;;;;;1.08;0.73;;;;;;;11.66;72.71;100659.47;5013980;28;20049;-78
2023/11/13 10:41:34;;;;;;;0.77;0.70;;;;;;;11.01;59.75;100653.31;5052593;28;20060;-76
2023/11/13 10:44:19;;;;;;;2.05;1.85;;;;;;;11.11;65.95;100660.31;5029759;28;20469;-77
2023/11/13 10:46:45;;;;;;;0.85;0.85;;;;;;;11.19;64.74;100648.97;5029017;28;20084;-76
2023/11/13 10:49:17;;;;;;;0.55;0.47;;;;;;;10.95;65.27;100634.03;5029170;28;20041;-78
2023/11/13 10:51:54;;;;;;;0.20;0.20;;;;;;;11.50;64.54;100663.88;5032132;28;20033;-77
2023/11/13 10:54:23;;;;;;;0.90;0.65;;;;;;;11.05;59.92;100577.16;5029950;28;20025;-78
2023/11/13 10:56:50;;;;;;;1.58;0.80;;;;;;;11.34;57.48;100628.84;5021737;28;20091;-77
2023/11/13 10:59:16;;;;;;;1.63;1.20;;;;;;;10.94;57.35;100545.66;5008560;28;20056;-77
2023/11/13 11:01:51;;;;;;;0.40;0.40;;;;;;;11.28;58.13;100556.13;5013668;28;20033;-78
2023/11/13 11:04:19;;;;;;;10.02;2.25;;;;;;;11.10;60.53;100557.03;5028019;28;20438;-77
2023/11/13 11:06:47;;;;;;;0.40;0.40;;;;;;;11.60;58.48;100632.31;5036682;28;20445;-79
2023/11/13 11:09:51;;;;;;;0.65;0.65;;;;;;;12.00;57.22;100655.09;5030725;28;20032;-80
2023/11/13 11:12:19;;;;;;;2.17;1.10;;;;;;;11.47;59.12;100653.34;5032332;28;20446;-78
2023/11/13 11:14:59;;;;;;;1.10;0.98;;;;;;;11.17;57.80;100579.78;5031883;28;20044;-76
2023/11/13 11:21:19;;;;;;;0.32;0.32;;;;;;;11.91;58.89;100650.72;5028906;28;20500;-76
2023/11/13 11:24:01;;;;;;;1.13;1.02;;;;;;;11.36;59.26;100545.66;5030936;28;20048;-76
2023/11/13 11:26:34;;;;;;;0.85;0.43;;;;;;;11.86;61.46;100638.44;5029556;28;20053;-76
2023/11/13 11:28:59;;;;;;;1.75;1.33;;;;;;;11.79;63.96;100588.47;5028558;28;20434;-76
2023/11/13 11:31:38;;;;;;;0.77;0.70;;;;;;;12.20;65.24;100639.28;5028380;28;20037;-76
2023/11/13 11:34:19;;;;;;;1.52;1.42;;;;;;;12.13;60.72;100627.03;5032014;28;20041;-78
2023/11/13 11:36:52;;;;;;;1.02;0.98;;;;;;;12.11;58.00;100634.03;5024480;28;20056;-78
2023/11/13 11:39:21;;;;;;;1.55;1.17;;;;;;;11.59;54.64;100538.59;5010547;28;20048;-76
2023/11/13 11:41:54;;;;;;;1.10;0.73;;;;;;;11.77;52.17;100558.69;5039755;28;20065;-77
2023/11/13 11:44:27;;;;;;;4.85;1.10;;;;;;;12.36;51.23;100627.81;5006625;28;20508;-77
2023/11/13 11:46:54;;;;;;;0.88;0.82;;;;;;;12.43;50.25;100628.63;5027771;28;20117;-78
2023/11/13 11:49:28;;;;;;;1.08;0.85;;;;;;;12.21;50.91;100617.34;5023494;28;20519;-77
2023/11/13 11:56:00;;;;;;;0.68;0.68;;;;;;;12.10;50.76;100617.34;5014712;28;20164;-82
2023/11/13 11:58:35;;;;;;;2.80;1.58;;;;;;;12.08;50.33;100590.22;4989780;28;20037;-81
2023/11/13 12:01:17;;;;;;;0.82;0.75;;;;;;;11.96;53.11;100601.66;5008994;28;20092;-83
2023/11/13 12:03:44;;;;;;;1.90;0.95;;;;;;;12.09;52.68;100589.31;5025682;28;20536;-82
2023/11/13 12:06:48;;;;;;;4.63;0.82;;;;;;;12.22;52.51;100584.88;5034894;28;20076;-79
2023/11/13 12:09:40;;;;;;;0.65;0.60;;;;;;;12.13;51.65;100577.91;4999288;28;20113;-81
2023/11/13 12:12:21;;;;;;;1.90;1.40;;;;;;;12.33;52.95;100572.53;5023718;28;20417;-80
2023/11/13 12:15:03;;;;;;;2.13;1.52;;;;;;;12.02;53.82;100488.50;5011414;28;20033;-81
2023/11/13 12:17:35;;;;;;;1.45;0.88;;;;;;;12.29;54.41;100580.47;5023094;28;20033;-82
2023/11/13 12:20:44;;;;;;;1.15;1.00;;;;;;;12.15;52.57;100577.88;5008193;28;20045;-81
2023/11/13 12:39:07;;;;;;;1.30;1.08;;;;;;;12.08;52.00;100469.22;5028466;28;20080;-81
2023/11/13 12:42:11;;;;;;;1.70;1.27;;;;;;;12.78;53.09;100575.84;5003382;28;20045;-81
2023/11/13 12:44:48;;;;;;;2.15;1.95;;;;;;;11.95;51.63;100517.50;4999443;28;20559;-80
2023/11/13 12:47:56;;;;;;;0.60;0.60;;;;;;;12.63;51.81;100574.16;5017825;28;20041;-81
2023/11/13 13:27:48;;;;;;;1.33;1.17;;;;;;;12.14;51.36;100584.03;4818674;29;20164;-82
2023/11/13 13:33:35;;;;;;;1.75;1.65;;;;;;;11.90;51.38;100556.06;4827267;29;20110;-77
2023/11/13 13:36:04;;;;;;;0.45;0.45;;;;;;;12.11;51.41;100556.00;4878915;29;20481;-78
2023/11/13 13:38:30;;;;;;;1.48;0.77;;;;;;;11.97;51.92;100539.41;4926854;28;20078;-77
2023/11/13 13:41:45;;;;;;;1.00;0.85;;;;;;;12.20;52.48;100558.59;4966765;28;20122;-78
2023/11/13 13:44:12;;;;;;;2.90;2.70;;;;;;;11.90;53.33;100533.28;4988834;28;20778;-77
2023/11/13 13:46:40;;;;;;;0.93;0.80;;;;;;;12.08;53.17;100563.00;5030946;28;20056;-79
2023/11/13 13:49:06;;;;;;;1.58;0.73;;;;;;;11.90;52.55;100551.69;5029729;28;20037;-77
2023/11/13 13:51:35;;;;;;;1.10;0.70;;;;;;;11.88;52.73;100557.84;5038259;28;20034;-77
2023/11/13 13:54:08;;;;;;;0.60;0.57;;;;;;;11.46;53.41;100496.56;5012712;28;20041;-76
2023/11/13 13:56:38;;;;;;;2.55;2.35;;;;;;;11.37;52.36;100505.34;5036393;28;20030;-76
2023/11/13 14:05:55;;;;;;;0.55;0.55;;;;;;;11.82;52.90;100574.44;5032519;28;20099;-76
2023/11/13 14:08:21;;;;;;;0.70;0.70;;;;;;;11.62;53.06;100553.47;5031553;28;20092;-76
2023/11/13 14:10:48;;;;;;;0.93;0.82;;;;;;;11.08;53.51;100476.50;5033207;28;20037;-76
2023/11/13 14:13:14;;;;;;;1.00;0.88;;;;;;;11.64;54.26;100550.88;5036205;28;20465;-78
2023/11/13 14:15:41;;;;;;;1.98;1.45;;;;;;;11.54;54.06;100543.00;5012655;28;20053;-77
2023/11/13 14:18:11;;;;;;;0.73;0.73;;;;;;;11.54;54.99;100536.84;5033609;28;20028;-76
2023/11/13 14:20:41;;;;;;;4.60;0.85;;;;;;;11.05;55.08;100461.63;5030609;28;20120;-77